createdAt,value
2019-06-07T00:00:36.666Z,25.50
2019-06-07T00:01:13.780Z,25.50
2019-06-07T00:02:13.284Z,25.50
2019-06-07T00:03:23.865Z,25.50
2019-06-07T00:04:13.471Z,25.50
2019-06-07T00:05:14.950Z,25.50
2019-06-07T00:06:21.434Z,25.48
2019-06-07T00:07:16.953Z,25.47
2019-06-07T00:08:26.995Z,25.46
2019-06-07T00:09:18.632Z,25.45
2019-06-07T00:10:35.472Z,25.46
2019-06-07T00:11:20.297Z,25.47
2019-06-07T00:12:17.628Z,25.47
2019-06-07T00:13:18.762Z,25.46
2019-06-07T00:14:16.598Z,25.47
2019-06-07T00:15:20.060Z,25.46
2019-06-07T00:16:19.107Z,25.45
2019-06-07T00:17:17.204Z,25.45
2019-06-07T00:18:17.536Z,25.45
2019-06-07T00:19:15.862Z,25.44
2019-06-07T00:20:16.763Z,25.44
2019-06-07T00:21:14.428Z,25.43
2019-06-07T00:22:17.975Z,25.44
2019-06-07T00:23:20.143Z,25.42
2019-06-07T00:24:18.639Z,25.42
2019-06-07T00:25:22.753Z,25.43
2019-06-07T00:26:19.174Z,25.42
2019-06-07T00:27:15.779Z,25.42
2019-06-07T00:28:17.380Z,25.38
2019-06-07T00:29:16.867Z,25.41
2019-06-07T00:30:40.887Z,25.39
2019-06-07T00:31:17.259Z,25.40
2019-06-07T00:32:18.155Z,25.39
2019-06-07T00:33:18.391Z,25.40
2019-06-07T00:34:20.034Z,25.38
2019-06-07T00:35:20.250Z,25.40
2019-06-07T00:36:24.936Z,25.38
2019-06-07T00:37:25.618Z,25.39
2019-06-07T00:38:23.238Z,25.38
2019-06-07T00:39:25.812Z,25.39
2019-06-07T00:40:32.006Z,25.38
2019-06-07T00:41:26.309Z,25.38
2019-06-07T00:42:25.945Z,25.37
2019-06-07T00:43:28.413Z,25.37
2019-06-07T00:44:25.457Z,25.36
2019-06-07T00:45:25.147Z,25.36
2019-06-07T00:46:25.456Z,25.36
2019-06-07T00:47:25.801Z,25.36
2019-06-07T00:48:31.953Z,25.35
2019-06-07T00:49:39.910Z,25.36
2019-06-07T00:50:24.952Z,25.35
2019-06-07T00:51:24.672Z,25.36
2019-06-07T00:53:11.075Z,25.32
2019-06-07T00:53:31.257Z,25.35
2019-06-07T00:54:24.997Z,25.34
2019-06-07T00:55:27.533Z,25.34
2019-06-07T00:56:23.621Z,25.34
2019-06-07T00:57:24.332Z,25.33
2019-06-07T00:58:27.495Z,25.33
2019-06-07T00:59:28.872Z,25.34
2019-06-07T01:00:25.347Z,25.33
2019-06-07T01:01:24.860Z,25.34
2019-06-07T01:02:26.018Z,25.35
2019-06-07T01:03:25.255Z,25.35
2019-06-07T01:04:23.096Z,25.35
2019-06-07T01:05:26.202Z,25.34
2019-06-07T01:06:22.972Z,25.30
2019-06-07T01:07:21.823Z,25.34
2019-06-07T01:08:22.792Z,25.32
2019-06-07T01:09:22.410Z,25.31
2019-06-07T01:10:36.509Z,25.31
2019-06-07T01:11:23.105Z,25.31
2019-06-07T01:12:21.270Z,25.32
2019-06-07T01:13:19.456Z,25.32
2019-06-07T01:14:21.722Z,25.32
2019-06-07T01:15:20.572Z,25.31
2019-06-07T01:16:18.769Z,25.31
2019-06-07T01:17:27.633Z,25.31
2019-06-07T01:19:18.765Z,25.28
2019-06-07T01:20:19.172Z,25.29
2019-06-07T01:21:20.667Z,25.30
2019-06-07T01:22:17.826Z,25.28
2019-06-07T01:23:57.882Z,25.28
2019-06-07T01:24:15.644Z,25.28
2019-06-07T01:25:15.753Z,25.28
2019-06-07T01:26:18.933Z,25.27
2019-06-07T01:27:22.569Z,25.28
2019-06-07T01:28:21.416Z,25.28
2019-06-07T01:29:19.541Z,25.27
2019-06-07T01:30:18.772Z,25.27
2019-06-07T01:31:24.398Z,25.26
2019-06-07T01:32:21.647Z,25.25
2019-06-07T01:33:20.936Z,25.25
2019-06-07T01:34:21.122Z,25.24
2019-06-07T01:35:21.612Z,25.24
2019-06-07T01:36:21.632Z,25.23
2019-06-07T01:37:22.683Z,25.20
2019-06-07T01:38:22.898Z,25.19
2019-06-07T01:39:18.890Z,25.23
2019-06-07T01:40:20.800Z,25.23
2019-06-07T01:41:23.054Z,25.24
2019-06-07T01:42:18.683Z,25.23
2019-06-07T01:43:19.382Z,25.23
2019-06-07T01:44:18.519Z,25.23
2019-06-07T01:45:18.424Z,25.22
2019-06-07T01:46:18.138Z,25.22
2019-06-07T01:47:24.934Z,25.22
2019-06-07T01:48:23.097Z,25.18
2019-06-07T01:49:19.767Z,25.19
2019-06-07T01:50:22.588Z,25.20
2019-06-07T01:51:20.065Z,25.22
2019-06-07T01:52:19.605Z,25.22
2019-06-07T01:53:21.911Z,25.22
2019-06-07T01:55:18.982Z,25.22
2019-06-07T01:56:18.913Z,25.24
2019-06-07T01:57:36.612Z,25.21
2019-06-07T01:58:17.171Z,25.23
2019-06-07T01:59:17.774Z,25.22
2019-06-07T02:00:17.381Z,25.23
2019-06-07T02:01:19.189Z,25.22
2019-06-07T02:02:15.912Z,25.22
2019-06-07T02:03:15.686Z,25.20
2019-06-07T02:04:15.389Z,25.19
2019-06-07T02:05:15.081Z,25.19
2019-06-07T02:06:14.839Z,25.19
2019-06-07T02:07:14.588Z,25.19
2019-06-07T02:08:14.382Z,25.19
2019-06-07T02:09:14.085Z,25.18
2019-06-07T02:10:13.790Z,25.18
2019-06-07T02:11:13.533Z,25.18
2019-06-07T02:12:25.733Z,25.18
2019-06-07T02:13:12.850Z,25.17
2019-06-07T02:14:17.311Z,25.16
2019-06-07T02:15:16.100Z,25.18
2019-06-07T02:16:15.728Z,25.18
2019-06-07T02:17:15.408Z,25.18
2019-06-07T02:18:15.120Z,25.18
2019-06-07T02:19:14.882Z,25.17
2019-06-07T02:20:14.580Z,25.17
2019-06-07T02:21:14.248Z,25.16
2019-06-07T02:22:13.968Z,25.17
2019-06-07T02:23:20.333Z,25.14
2019-06-07T02:24:17.415Z,25.13
2019-06-07T02:25:37.177Z,25.14
2019-06-07T02:26:16.754Z,25.13
2019-06-07T02:27:16.413Z,25.13
2019-06-07T02:28:36.535Z,25.12
2019-06-07T02:29:15.872Z,25.14
2019-06-07T02:31:15.291Z,25.12
2019-06-07T02:32:14.975Z,25.12
2019-06-07T02:33:14.680Z,25.11
2019-06-07T02:34:14.430Z,25.10
2019-06-07T02:35:14.156Z,25.09
2019-06-07T02:36:13.810Z,25.09
2019-06-07T02:37:13.519Z,25.09
2019-06-07T02:38:13.272Z,25.09
2019-06-07T02:39:12.934Z,25.09
2019-06-07T02:40:12.671Z,25.08
2019-06-07T02:41:12.440Z,25.07
2019-06-07T02:42:12.068Z,25.07
2019-06-07T02:43:11.816Z,25.07
2019-06-07T02:44:14.443Z,25.06
2019-06-07T02:45:13.482Z,25.07
2019-06-07T02:46:26.510Z,25.07
2019-06-07T02:47:17.634Z,25.06
2019-06-07T02:48:16.464Z,25.05
2019-06-07T02:49:17.921Z,25.02
2019-06-07T02:50:17.128Z,25.04
2019-06-07T02:51:16.866Z,25.04
2019-06-07T02:52:16.662Z,25.03
2019-06-07T02:53:16.285Z,25.04
2019-06-07T02:54:17.355Z,25.04
2019-06-07T02:55:25.037Z,25.04
2019-06-07T02:56:39.073Z,25.03
2019-06-07T02:57:36.993Z,25.02
2019-06-07T02:58:41.584Z,25.00
2019-06-07T03:00:05.632Z,25.02
2019-06-07T03:00:54.978Z,25.02
2019-06-07T03:01:47.925Z,25.01
2019-06-07T03:02:51.342Z,25.02
2019-06-07T03:03:50.086Z,25.03
2019-06-07T03:04:49.835Z,25.02
2019-06-07T03:05:49.486Z,25.02
2019-06-07T03:06:49.153Z,25.04
2019-06-07T03:07:48.918Z,25.03
2019-06-07T03:08:53.430Z,25.03
2019-06-07T03:09:52.303Z,25.02
2019-06-07T03:10:51.946Z,25.01
2019-06-07T03:11:51.641Z,25.01
2019-06-07T03:12:51.458Z,25.01
2019-06-07T03:13:51.191Z,25.02
2019-06-07T03:14:50.890Z,24.99
2019-06-07T03:15:50.666Z,24.99
2019-06-07T03:16:50.406Z,25.01
2019-06-07T03:17:50.183Z,25.02
2019-06-07T03:18:54.720Z,25.01
2019-06-07T03:19:53.539Z,25.01
2019-06-07T03:21:04.928Z,25.00
2019-06-07T03:21:52.984Z,24.99
2019-06-07T03:22:52.801Z,24.96
2019-06-07T03:23:52.495Z,24.97
2019-06-07T03:24:52.211Z,24.99
2019-06-07T03:25:51.925Z,24.98
2019-06-07T03:27:59.834Z,24.97
2019-06-07T03:28:58.418Z,24.95
2019-06-07T03:29:58.161Z,24.96
2019-06-07T03:31:02.807Z,24.94
2019-06-07T03:31:57.626Z,24.94
2019-06-07T03:32:57.315Z,24.94
2019-06-07T03:33:57.073Z,24.94
2019-06-07T03:34:56.794Z,24.93
2019-06-07T03:35:56.524Z,24.93
2019-06-07T03:36:56.258Z,24.93
2019-06-07T03:37:56.024Z,24.92
2019-06-07T03:38:55.834Z,24.93
2019-06-07T03:39:55.543Z,24.91
2019-06-07T03:40:55.207Z,24.90
2019-06-07T03:42:05.615Z,24.86
2019-06-07T03:42:54.649Z,24.88
2019-06-07T03:43:54.355Z,24.87
2019-06-07T03:44:54.097Z,24.86
2019-06-07T03:45:53.810Z,24.87
2019-06-07T03:46:53.560Z,24.85
2019-06-07T03:47:53.308Z,24.86
2019-06-07T03:48:53.060Z,24.82
2019-06-07T03:49:52.875Z,24.85
2019-06-07T03:51:04.210Z,24.85
2019-06-07T03:51:53.538Z,24.86
2019-06-07T03:52:53.319Z,24.85
2019-06-07T03:53:52.828Z,24.86
2019-06-07T03:55:00.937Z,24.85
2019-06-07T03:55:59.559Z,24.87
2019-06-07T03:56:59.187Z,24.86
2019-06-07T03:58:36.656Z,24.86
2019-06-07T03:59:04.601Z,24.84
2019-06-07T04:00:12.219Z,24.83
2019-06-07T04:01:10.907Z,24.85
2019-06-07T04:02:10.615Z,24.84
2019-06-07T04:03:32.784Z,24.85
2019-06-07T04:04:18.936Z,24.82
2019-06-07T04:05:22.467Z,24.82
2019-06-07T04:06:25.972Z,24.81
2019-06-07T04:07:28.941Z,24.80
2019-06-07T04:08:28.198Z,24.80
2019-06-07T04:09:28.579Z,24.81
2019-06-07T04:10:51.981Z,24.80
2019-06-07T04:11:35.793Z,24.80
2019-06-07T04:12:35.541Z,24.81
2019-06-07T04:13:34.826Z,24.80
2019-06-07T04:14:35.015Z,24.80
2019-06-07T04:15:40.845Z,24.80
2019-06-07T04:16:40.857Z,24.79
2019-06-07T04:17:39.142Z,24.76
2019-06-07T04:18:40.158Z,24.73
2019-06-07T04:19:42.028Z,24.73
2019-06-07T04:20:38.044Z,24.74
2019-06-07T04:21:37.284Z,24.74
2019-06-07T04:22:37.658Z,24.76
2019-06-07T04:23:37.990Z,24.80
2019-06-07T04:24:38.364Z,24.79
2019-06-07T04:25:37.170Z,24.79
2019-06-07T04:26:35.076Z,24.82
2019-06-07T04:27:33.123Z,24.83
2019-06-07T04:29:27.355Z,24.83
2019-06-07T04:30:04.892Z,24.86
2019-06-07T04:30:37.276Z,24.88
2019-06-07T04:31:36.954Z,24.91
2019-06-07T04:32:37.057Z,24.92
2019-06-07T04:33:39.745Z,24.92
2019-06-07T04:34:37.474Z,24.93
2019-06-07T04:35:36.588Z,24.95
2019-06-07T04:36:47.553Z,24.94
2019-06-07T04:37:36.025Z,24.94
2019-06-07T04:38:39.311Z,24.93
2019-06-07T04:39:35.204Z,24.91
2019-06-07T04:40:39.979Z,24.88
2019-06-07T04:41:37.236Z,24.88
2019-06-07T04:42:39.179Z,24.87
2019-06-07T04:43:37.720Z,24.86
2019-06-07T04:44:39.344Z,24.85
2019-06-07T04:45:41.843Z,24.83
2019-06-07T04:46:38.979Z,24.82
2019-06-07T04:47:36.715Z,24.81
2019-06-07T04:48:35.966Z,24.79
2019-06-07T04:49:37.257Z,24.78
2019-06-07T04:50:35.385Z,24.78
2019-06-07T04:51:34.067Z,24.77
2019-06-07T04:52:39.848Z,24.76
2019-06-07T04:53:35.311Z,24.77
2019-06-07T04:54:37.350Z,24.77
2019-06-07T04:55:34.069Z,24.79
2019-06-07T04:56:37.669Z,24.78
2019-06-07T04:57:37.606Z,24.78
2019-06-07T04:58:35.770Z,24.77
2019-06-07T05:00:10.968Z,24.77
2019-06-07T05:00:49.858Z,24.77
2019-06-07T05:01:34.889Z,24.78
2019-06-07T05:02:36.820Z,24.81
2019-06-07T05:03:36.121Z,24.81
2019-06-07T05:04:33.210Z,24.81
2019-06-07T05:05:34.349Z,24.80
2019-06-07T05:06:34.891Z,24.79
2019-06-07T05:07:32.982Z,24.79
2019-06-07T05:08:33.323Z,24.78
2019-06-07T05:09:32.677Z,24.77
2019-06-07T05:10:35.154Z,24.79
2019-06-07T05:11:31.970Z,24.78
2019-06-07T05:12:32.529Z,24.78
2019-06-07T05:13:31.501Z,24.78
2019-06-07T05:14:32.554Z,24.78
2019-06-07T05:15:37.160Z,24.78
2019-06-07T05:16:36.840Z,24.79
2019-06-07T05:17:37.722Z,24.80
2019-06-07T05:18:43.126Z,24.79
2019-06-07T05:19:43.727Z,24.80
2019-06-07T05:20:43.504Z,24.67
2019-06-07T05:22:01.427Z,24.42
2019-06-07T05:22:40.871Z,24.17
2019-06-07T05:24:40.780Z,23.51
2019-06-07T05:25:39.284Z,23.26
2019-06-07T05:26:45.129Z,23.13
2019-06-07T05:27:46.829Z,23.02
2019-06-07T05:28:43.683Z,22.97
2019-06-07T05:30:08.933Z,22.90
2019-06-07T05:31:55.074Z,23.00
2019-06-07T05:32:53.734Z,22.90
2019-06-07T05:33:53.229Z,22.78
2019-06-07T05:34:52.831Z,22.70
2019-06-07T05:35:52.476Z,22.54
2019-06-07T05:37:10.526Z,22.18
2019-06-07T05:37:51.715Z,21.85
2019-06-07T05:38:51.354Z,21.83
2019-06-07T05:39:50.947Z,21.77
2019-06-07T05:40:50.551Z,21.23
2019-06-07T05:41:50.153Z,21.34
2019-06-07T05:42:49.935Z,21.43
2019-06-07T05:44:09.128Z,21.34
2019-06-07T05:44:49.404Z,21.39
2019-06-07T05:45:49.174Z,21.41
2019-06-07T05:46:48.862Z,21.25
2019-06-07T05:47:53.312Z,21.24
2019-06-07T05:48:52.238Z,20.92
2019-06-07T05:49:52.036Z,20.93
2019-06-07T05:50:56.994Z,20.86
2019-06-07T05:51:51.228Z,20.94
2019-06-07T05:52:53.938Z,21.22
2019-06-07T05:53:52.466Z,21.65
2019-06-07T05:54:52.089Z,22.14
2019-06-07T05:55:51.687Z,22.51
2019-06-07T05:56:51.335Z,22.82
2019-06-07T05:57:51.288Z,23.07
2019-06-07T05:58:50.858Z,23.25
2019-06-07T05:59:50.562Z,23.39
2019-06-07T06:01:40.819Z,23.50
2019-06-07T06:02:07.979Z,23.57
2019-06-07T06:03:05.500Z,23.65
2019-06-07T06:03:56.743Z,23.72
2019-06-07T06:04:56.541Z,23.77
2019-06-07T06:05:56.296Z,23.82
2019-06-07T06:06:55.821Z,23.86
2019-06-07T06:07:55.461Z,23.87
2019-06-07T06:09:12.824Z,23.84
2019-06-07T06:09:54.757Z,23.84
2019-06-07T06:10:54.394Z,23.82
2019-06-07T06:12:01.857Z,23.81
2019-06-07T06:12:54.019Z,23.78
2019-06-07T06:14:06.451Z,23.78
2019-06-07T06:14:53.522Z,23.79
2019-06-07T06:16:01.419Z,23.79
2019-06-07T06:16:53.066Z,23.80
2019-06-07T06:17:53.875Z,23.79
2019-06-07T06:18:52.530Z,23.82
2019-06-07T06:19:53.469Z,23.84
2019-06-07T06:21:15.194Z,23.84
2019-06-07T06:21:51.880Z,23.85
2019-06-07T06:22:51.555Z,23.86
2019-06-07T06:23:53.740Z,23.86
2019-06-07T06:25:29.717Z,23.87
2019-06-07T06:25:57.144Z,23.88
2019-06-07T06:26:55.203Z,23.89
2019-06-07T06:28:10.511Z,23.89
2019-06-07T06:28:50.008Z,23.91
2019-06-07T06:29:50.592Z,23.93
2019-06-07T06:30:50.046Z,23.94
2019-06-07T06:32:39.751Z,23.93
2019-06-07T06:32:56.736Z,23.96
2019-06-07T06:33:53.817Z,23.96
2019-06-07T06:34:53.901Z,23.97
2019-06-07T06:35:52.474Z,23.98
2019-06-07T06:36:52.356Z,23.99
2019-06-07T06:37:53.442Z,24.00
2019-06-07T06:38:52.006Z,24.00
2019-06-07T06:39:51.807Z,24.00
2019-06-07T06:41:05.267Z,24.01
2019-06-07T06:42:03.310Z,24.02
2019-06-07T06:42:55.200Z,24.02
2019-06-07T06:43:54.898Z,24.03
2019-06-07T06:44:54.699Z,24.04
2019-06-07T06:45:54.478Z,24.04
2019-06-07T06:46:58.196Z,24.04
2019-06-07T06:47:53.409Z,24.05
2019-06-07T06:49:01.561Z,24.05
2019-06-07T06:50:00.357Z,24.06
2019-06-07T06:51:00.128Z,24.06
2019-06-07T06:52:04.728Z,24.07
2019-06-07T06:53:03.596Z,24.08
2019-06-07T06:54:03.401Z,24.09
2019-06-07T06:55:03.125Z,24.06
2019-06-07T06:56:02.932Z,24.08
2019-06-07T06:57:19.090Z,24.08
2019-06-07T06:58:02.479Z,24.09
2019-06-07T07:00:02.158Z,24.08
2019-06-07T07:01:06.518Z,24.11
2019-06-07T07:02:06.567Z,24.12
2019-06-07T07:03:47.416Z,24.12
2019-06-07T07:04:13.043Z,24.10
2019-06-07T07:05:05.037Z,24.13
2019-06-07T07:06:24.702Z,24.14
2019-06-07T07:07:04.623Z,24.14
2019-06-07T07:08:04.219Z,24.14
2019-06-07T07:09:03.945Z,24.13
2019-06-07T07:10:03.658Z,24.14
2019-06-07T07:11:03.496Z,24.15
2019-06-07T07:12:11.705Z,24.16
2019-06-07T07:13:03.192Z,24.16
2019-06-07T07:14:07.714Z,24.16
2019-06-07T07:15:06.620Z,24.16
2019-06-07T07:16:06.378Z,24.16
2019-06-07T07:17:06.177Z,24.19
2019-06-07T07:18:08.864Z,24.19
2019-06-07T07:19:05.680Z,24.18
2019-06-07T07:20:05.452Z,24.19
2019-06-07T07:21:05.254Z,24.17
2019-06-07T07:22:05.038Z,24.19
2019-06-07T07:23:04.786Z,24.19
2019-06-07T07:24:20.474Z,24.20
2019-06-07T07:25:04.326Z,24.22
2019-06-07T07:26:04.167Z,24.21
2019-06-07T07:27:03.905Z,24.22
2019-06-07T07:28:03.718Z,24.22
2019-06-07T07:29:11.810Z,24.21
2019-06-07T07:30:36.257Z,24.22
2019-06-07T07:31:18.335Z,24.22
2019-06-07T07:32:17.085Z,24.24
2019-06-07T07:33:16.963Z,24.24
2019-06-07T07:34:34.685Z,24.23
2019-06-07T07:35:32.195Z,24.23
2019-06-07T07:36:39.833Z,24.25
2019-06-07T07:37:34.610Z,24.24
2019-06-07T13:37:27.823Z,26.06
2019-06-07T13:38:26.622Z,26.11
2019-06-07T13:39:29.692Z,26.10
2019-06-07T13:40:26.777Z,26.10
2019-06-07T13:41:36.526Z,26.10
2019-06-07T13:42:28.622Z,26.11
2019-06-07T13:43:28.174Z,26.11
2019-06-07T13:44:26.970Z,26.09
2019-06-07T13:45:27.949Z,26.10
2019-06-07T13:46:29.178Z,26.11
2019-06-07T13:47:29.980Z,26.11
2019-06-07T13:48:30.986Z,26.11
2019-06-07T13:49:35.037Z,26.11
2019-06-07T13:50:33.919Z,26.11
2019-06-07T13:51:38.490Z,26.09
2019-06-07T13:52:37.707Z,26.10
2019-06-07T13:53:38.411Z,26.02
2019-06-07T13:54:37.824Z,26.02
2019-06-07T13:55:39.362Z,26.02
2019-06-07T13:56:57.633Z,26.05
2019-06-07T13:57:40.151Z,26.06
2019-06-07T13:58:39.432Z,26.09
2019-06-07T13:59:39.084Z,26.08
2019-06-07T14:00:43.711Z,26.09
2019-06-07T14:01:42.487Z,26.11
2019-06-07T14:02:42.270Z,26.10
2019-06-07T14:03:41.765Z,26.11
2019-06-07T14:04:41.550Z,26.11
2019-06-07T14:05:41.358Z,26.11
2019-06-07T14:06:45.980Z,26.14
2019-06-07T14:07:44.934Z,26.13
2019-06-07T14:08:44.588Z,26.12
2019-06-07T14:09:46.155Z,26.13
2019-06-07T14:10:50.189Z,26.13
2019-06-07T14:11:53.814Z,26.13
2019-06-07T14:13:09.539Z,26.13
2019-06-07T14:14:07.960Z,26.15
2019-06-07T14:15:07.195Z,26.13
2019-06-07T14:16:06.770Z,26.15
2019-06-07T14:17:06.451Z,26.14
2019-06-07T14:18:06.115Z,26.14
2019-06-07T14:19:05.779Z,26.17
2019-06-07T14:20:05.644Z,26.17
2019-06-07T14:21:05.145Z,26.18
2019-06-07T14:22:04.843Z,26.19
2019-06-07T14:23:04.659Z,26.19
2019-06-07T14:24:04.216Z,26.19
2019-06-07T14:25:04.008Z,26.18
2019-06-07T14:26:03.583Z,26.18
2019-06-07T14:27:03.476Z,26.18
2019-06-07T14:28:10.511Z,26.20
2019-06-07T14:29:02.993Z,26.20
2019-06-07T14:30:02.674Z,26.20
2019-06-07T14:31:06.030Z,26.19
2019-06-07T14:32:05.060Z,26.17
2019-06-07T14:33:04.831Z,26.14
2019-06-07T14:34:04.750Z,26.12
2019-06-07T14:35:04.525Z,26.12
2019-06-07T14:36:08.971Z,26.11
2019-06-07T14:37:07.923Z,26.14
2019-06-07T14:38:07.653Z,26.10
2019-06-07T14:39:07.455Z,26.13
2019-06-07T14:40:07.226Z,26.11
2019-06-07T14:41:07.055Z,26.08
2019-06-07T14:42:09.783Z,26.08
2019-06-07T14:43:06.608Z,26.10
2019-06-07T14:44:10.403Z,26.09
2019-06-07T14:45:09.117Z,26.09
2019-06-07T14:46:08.919Z,26.10
2019-06-07T14:47:13.505Z,26.10
2019-06-07T14:48:12.408Z,26.08
2019-06-07T14:49:12.156Z,26.09
2019-06-07T14:50:11.856Z,26.10
2019-06-07T14:51:11.673Z,26.10
2019-06-07T14:52:11.506Z,26.09
2019-06-07T14:53:11.276Z,26.09
2019-06-07T14:54:11.124Z,26.09
2019-06-07T14:55:10.933Z,26.08
2019-06-07T14:56:10.600Z,26.06
2019-06-07T14:57:10.422Z,26.07
2019-06-07T14:58:10.243Z,26.09
2019-06-07T14:59:09.996Z,26.09
2019-06-07T15:00:11.433Z,26.08
2019-06-07T15:01:09.514Z,26.09
2019-06-07T15:02:16.968Z,26.08
2019-06-07T15:03:15.784Z,26.08
2019-06-07T15:04:20.240Z,26.08
2019-06-07T15:05:19.258Z,26.08
2019-06-07T15:06:19.014Z,26.08
2019-06-07T15:07:20.723Z,26.08
2019-06-07T15:08:20.030Z,26.09
